Delta Poseidon — SVBF6 — position and weather

sailwx.info

Track history (hours):
 
Tides and Currents Weather Stations Pressure Air Temp Water Temp Dewpoint Dewpoint Depression Visibility Wind Speed Wind Dir Waves Ship Positions

Delta Poseidon

Last reported at 2015-Jun-09 21:32 UTC. Time now 2015-Jul-06 04:55 UTC.
Position S 22°00' W 040°38'.
Warning: this ship's position is 26 days out of date.

Length 274 m; draft 9 m.

Type: Tanker. MMSI: 241086000.

Date/timePositionNaut miles runAvg speedWind from/ knotsBaromVisibWave heightAir tempDewpointWater temp
2015-Jun-09 21:32S 22°00' W 040°38'6 6.1
2015-Jun-09 20:31S 22°05' W 040°43'6 5.8
2015-Jun-09 19:33S 22°09' W 040°47'6 5.7
2015-Jun-09 18:28S 22°13' W 040°51'6 5.8
2015-Jun-09 17:20S 22°18' W 040°56'5 5.8
2015-Jun-09 16:28S 22°21' W 040°60'5 5.7
2015-Jun-09 15:32S 22°25' W 041°04'11 5.7
2015-Jun-09 13:33S 22°33' W 041°13'6 6.0
2015-Jun-09 12:33S 22°38' W 041°17'6 6.2
2015-Jun-09 11:33S 22°42' W 041°22'7 6.4
2015-Jun-09 10:24S 22°47' W 041°27'6 6.4
2015-Jun-09 09:24S 22°52' W 041°32'5 6.3
2015-Jun-09 08:34S 22°55' W 041°37'6 6.2
2015-Jun-09 07:33S 22°60' W 041°41'6 6.0
2015-Jun-09 06:33S 23°04' W 041°46'76 5.0
2015-Jun-08 15:32S 23°56' W 042°46'2 2.1
2015-Jun-08 14:31S 23°55' W 042°44'2 2.1
2015-Jun-08 13:32S 23°55' W 042°41'33 2.0
2015-Jun-07 21:28S 23°55' W 042°06'1 1.5
2015-Jun-07 20:32S 23°55' W 042°04'2 1.5
2015-Jun-07 19:17S 23°55' W 042°02'3 3.6
2015-Jun-07 18:34S 23°57' W 042°02'7 4.9
2015-Jun-07 17:13S 24°01' W 042°08'3 5.2
2015-Jun-07 16:33S 24°02' W 042°12'66 5.0
2015-Jun-07 03:25S 24°17' W 043°23'4 3.9
2015-Jun-07 02:19S 24°18' W 043°27'3 3.8
2015-Jun-07 01:28S 24°18' W 043°31'8 4.1
2015-Jun-06 23:25S 24°21' W 043°40'4 4.2
2015-Jun-06 22:26S 24°22' W 043°44'  
Track history (hours):
 
Tides and Currents Weather Stations Pressure Air Temp Water Temp Dewpoint Dewpoint Depression Visibility Wind Speed Wind Dir Waves Ship Positions

Delta Poseidon

Last reported at 2015-Jun-09 21:32 UTC. Time now 2015-Jul-06 04:55 UTC.
Position S 22°00' W 040°38'.
Warning: this ship's position is 26 days out of date.

Length 274 m; draft 9 m.

Type: Tanker. MMSI: 241086000.

Date/timePositionNaut miles runAvg speedWind from/ knotsBaromVisibWave heightAir tempDewpointWater temp
2015-Jun-09 21:32S 22°00' W 040°38'6 6.1
2015-Jun-09 20:31S 22°05' W 040°43'6 5.8
2015-Jun-09 19:33S 22°09' W 040°47'6 5.7
2015-Jun-09 18:28S 22°13' W 040°51'6 5.8
2015-Jun-09 17:20S 22°18' W 040°56'5 5.8
2015-Jun-09 16:28S 22°21' W 040°60'5 5.7
2015-Jun-09 15:32S 22°25' W 041°04'11 5.7
2015-Jun-09 13:33S 22°33' W 041°13'6 6.0
2015-Jun-09 12:33S 22°38' W 041°17'6 6.2
2015-Jun-09 11:33S 22°42' W 041°22'7 6.4
2015-Jun-09 10:24S 22°47' W 041°27'6 6.4
2015-Jun-09 09:24S 22°52' W 041°32'5 6.3
2015-Jun-09 08:34S 22°55' W 041°37'6 6.2
2015-Jun-09 07:33S 22°60' W 041°41'6 6.0
2015-Jun-09 06:33S 23°04' W 041°46'76 5.0
2015-Jun-08 15:32S 23°56' W 042°46'2 2.1
2015-Jun-08 14:31S 23°55' W 042°44'2 2.1
2015-Jun-08 13:32S 23°55' W 042°41'33 2.0
2015-Jun-07 21:28S 23°55' W 042°06'1 1.5
2015-Jun-07 20:32S 23°55' W 042°04'2 1.5
2015-Jun-07 19:17S 23°55' W 042°02'3 3.6
2015-Jun-07 18:34S 23°57' W 042°02'7 4.9
2015-Jun-07 17:13S 24°01' W 042°08'3 5.2
2015-Jun-07 16:33S 24°02' W 042°12'66 5.0
2015-Jun-07 03:25S 24°17' W 043°23'4 3.9
2015-Jun-07 02:19S 24°18' W 043°27'3 3.8
2015-Jun-07 01:28S 24°18' W 043°31'8 4.1
2015-Jun-06 23:25S 24°21' W 043°40'4 4.2
2015-Jun-06 22:26S 24°22' W 043°44'  

Dump ship's entire track history